Time;durP1;ratioP1;P1;durP2;ratioP2;P2;SDS_P1;SDS_P2;PMS_P1;PMS_P2;Temp;Humidity;BMP_temperature;BMP_pressure;BME280_temperature;BME280_humidity;BME280_pressure;Samples;Min_cycle;Max_cycle;Signal;HPM_P1;HPM_P2
2021/12/29 00:01:04;;;;;;;42.92;17.70;;;;;;;8.01;100.00;99999.31;5116153;28;20027;-66
2021/12/29 00:03:30;;;;;;;32.00;14.30;;;;;;;7.99;100.00;99988.94;5115849;28;20038;-66
2021/12/29 00:05:55;;;;;;;29.02;13.68;;;;;;;8.03;100.00;99998.41;5116072;28;20031;-65
2021/12/29 00:08:21;;;;;;;29.70;13.65;;;;;;;7.99;100.00;99995.88;5116210;28;20419;-67
2021/12/29 00:10:53;;;;;;;31.42;14.18;;;;;;;7.98;100.00;99996.75;5115567;28;20040;-66
2021/12/29 00:13:19;;;;;;;26.58;12.90;;;;;;;8.00;100.00;100018.44;5115646;28;20324;-66
2021/12/29 00:15:44;;;;;;;29.75;13.20;;;;;;;7.98;100.00;100031.50;5115331;28;20033;-66
2021/12/29 00:18:09;;;;;;;29.42;12.88;;;;;;;8.01;100.00;100041.88;5115743;28;20454;-66
2021/12/29 00:20:35;;;;;;;25.88;13.02;;;;;;;7.93;100.00;100029.88;5115695;28;20089;-66
2021/12/29 00:23:04;;;;;;;25.48;13.35;;;;;;;8.02;100.00;100064.44;5115682;28;20031;-66
2021/12/29 00:25:29;;;;;;;29.10;12.95;;;;;;;8.02;100.00;100067.03;5115617;28;20031;-66
2021/12/29 00:27:55;;;;;;;26.52;12.05;;;;;;;8.01;100.00;100074.88;5115713;28;20036;-66
2021/12/29 00:30:22;;;;;;;25.30;12.88;;;;;;;8.02;100.00;100068.78;5115787;28;20036;-65
2021/12/29 00:32:47;;;;;;;26.27;12.88;;;;;;;8.01;100.00;100061.84;5114526;28;20027;-65
2021/12/29 00:35:14;;;;;;;25.40;12.80;;;;;;;8.05;100.00;100068.75;5115221;28;20077;-66
2021/12/29 00:37:41;;;;;;;24.15;13.73;;;;;;;8.03;100.00;100081.78;5115511;28;20039;-66
2021/12/29 00:40:07;;;;;;;29.55;14.00;;;;;;;8.01;100.00;100083.56;5115528;28;20038;-66
2021/12/29 00:42:33;;;;;;;30.70;15.50;;;;;;;7.98;100.00;100088.81;5115383;28;20035;-65
2021/12/29 00:44:58;;;;;;;31.65;15.27;;;;;;;7.96;100.00;100093.22;5115226;28;20114;-66
2021/12/29 00:47:23;;;;;;;30.17;15.45;;;;;;;8.00;100.00;100097.47;5115136;28;20074;-65
2021/12/29 00:49:49;;;;;;;29.90;15.13;;;;;;;7.94;100.00;100088.91;5115250;28;20032;-64
2021/12/29 00:52:14;;;;;;;34.05;15.90;;;;;;;8.01;100.00;100106.16;5115362;28;20523;-65
2021/12/29 00:54:41;;;;;;;32.67;16.30;;;;;;;7.99;100.00;100105.31;5115328;28;20486;-65
2021/12/29 00:57:07;;;;;;;36.67;16.98;;;;;;;8.02;100.00;100115.69;5115552;28;20147;-65
2021/12/29 00:59:32;;;;;;;34.63;17.13;;;;;;;7.94;100.00;100113.22;5115374;28;20036;-66
2021/12/29 01:01:58;;;;;;;40.67;17.73;;;;;;;7.99;100.00;100119.19;5115089;28;20111;-66
2021/12/29 01:04:23;;;;;;;36.17;17.20;;;;;;;7.98;100.00;100135.72;5115231;28;20119;-66
2021/12/29 01:06:49;;;;;;;47.58;19.25;;;;;;;7.96;100.00;100132.28;5115477;28;20439;-66
2021/12/29 01:09:14;;;;;;;39.72;18.75;;;;;;;7.93;100.00;100134.06;5115276;28;20130;-66
2021/12/29 01:11:40;;;;;;;40.67;18.98;;;;;;;7.94;100.00;100138.41;5115194;28;20027;-66
2021/12/29 01:14:08;;;;;;;42.53;19.70;;;;;;;7.97;100.00;100149.63;5114979;28;20059;-66
2021/12/29 01:19:05;;;;;;;44.03;19.55;;;;;;;7.97;100.00;100161.78;5115180;28;20171;-66
2021/12/29 01:21:31;;;;;;;46.53;20.85;;;;;;;7.97;100.00;100167.00;5115277;28;20338;-66
2021/12/29 01:23:57;;;;;;;44.22;19.75;;;;;;;7.91;100.00;100152.31;5115334;28;20046;-66
2021/12/29 01:26:23;;;;;;;41.90;20.75;;;;;;;7.96;100.00;100176.59;5114859;28;20027;-66
2021/12/29 01:28:48;;;;;;;41.30;19.85;;;;;;;7.93;100.00;100176.63;5114868;28;20102;-66
2021/12/29 01:31:15;;;;;;;45.25;20.40;;;;;;;7.95;100.00;100182.66;5115071;28;20039;-66
2021/12/29 01:33:40;;;;;;;45.58;20.33;;;;;;;7.90;100.00;100178.41;5114751;28;20039;-66
2021/12/29 01:36:05;;;;;;;40.58;19.70;;;;;;;7.91;100.00;100199.22;5114899;28;20032;-66
2021/12/29 01:38:30;;;;;;;44.88;20.50;;;;;;;7.94;100.00;100207.00;5114874;28;20389;-65
2021/12/29 01:40:56;;;;;;;45.38;19.95;;;;;;;7.95;100.00;100215.69;5115619;28;20452;-66
2021/12/29 01:43:21;;;;;;;43.70;20.60;;;;;;;7.96;100.00;100238.25;5114934;28;20038;-66
2021/12/29 01:45:47;;;;;;;38.67;19.85;;;;;;;7.94;100.00;100238.25;5117564;28;20079;-66
2021/12/29 01:48:15;;;;;;;40.78;19.65;;;;;;;7.86;100.00;100216.63;5118582;28;20040;-66
2021/12/29 01:50:41;;;;;;;46.60;19.90;;;;;;;7.95;100.00;100228.69;5118481;28;20035;-66
2021/12/29 01:53:12;;;;;;;43.22;19.77;;;;;;;7.92;100.00;100229.59;5118528;28;20449;-65
2021/12/29 01:55:39;;;;;;;44.13;18.97;;;;;;;7.97;100.00;100247.75;5118340;28;20031;-67
2021/12/29 01:58:05;;;;;;;42.75;19.60;;;;;;;7.90;100.00;100240.91;5118512;28;20031;-67
2021/12/29 02:00:33;;;;;;;37.97;19.00;;;;;;;7.93;100.00;100244.34;5118102;28;20044;-66
2021/12/29 02:02:59;;;;;;;42.08;18.88;;;;;;;7.98;100.00;100246.88;5118294;28;20043;-66
2021/12/29 02:05:24;;;;;;;40.72;19.23;;;;;;;7.91;100.00;100248.72;5118581;28;20377;-66
2021/12/29 02:07:50;;;;;;;39.90;18.98;;;;;;;7.87;100.00;100257.44;5118467;28;20062;-66
2021/12/29 02:10:17;;;;;;;41.42;19.20;;;;;;;7.89;100.00;100260.91;5118311;28;20032;-66
2021/12/29 02:12:43;;;;;;;45.33;19.33;;;;;;;7.92;100.00;100262.59;5117857;28;20055;-67
2021/12/29 02:15:10;;;;;;;39.38;19.42;;;;;;;7.91;100.00;100255.66;5117812;28;20492;-66
2021/12/29 02:17:36;;;;;;;42.15;19.77;;;;;;;7.83;100.00;100263.56;5118182;28;20032;-67
2021/12/29 02:20:05;;;;;;;46.60;19.95;;;;;;;7.95;100.00;100284.28;5117891;28;20442;-66
2021/12/29 02:22:43;;;;;;;44.95;20.67;;;;;;;7.90;100.00;100269.56;5118206;28;20054;-68
2021/12/29 02:27:38;;;;;;;41.60;20.58;;;;;;;7.90;100.00;100274.78;5117540;28;20362;-65
2021/12/29 02:30:04;;;;;;;46.45;22.55;;;;;;;7.93;100.00;100286.03;5118115;28;20331;-66
2021/12/29 02:32:31;;;;;;;45.30;21.77;;;;;;;7.86;100.00;100273.09;5117990;28;20028;-66
2021/12/29 02:34:56;;;;;;;44.85;21.60;;;;;;;7.79;100.00;100259.28;5118013;28;20028;-66
2021/12/29 02:37:22;;;;;;;46.70;22.65;;;;;;;7.90;100.00;100272.16;5117529;28;20468;-67
2021/12/29 02:39:49;;;;;;;48.70;22.15;;;;;;;7.88;100.00;100277.41;5117720;28;20351;-66
2021/12/29 02:42:15;;;;;;;50.28;22.48;;;;;;;7.87;100.00;100287.84;5117710;28;20111;-66
2021/12/29 02:44:42;;;;;;;50.50;22.17;;;;;;;7.81;100.00;100272.25;5117667;28;20023;-67
2021/12/29 02:47:09;;;;;;;45.03;22.10;;;;;;;7.89;100.00;100286.94;5117358;28;20495;-66
2021/12/29 02:49:35;;;;;;;44.85;21.02;;;;;;;7.82;100.00;100279.19;5117413;28;20032;-66
2021/12/29 02:52:00;;;;;;;50.08;21.60;;;;;;;7.86;100.00;100276.56;5117259;28;20339;-67
2021/12/29 02:54:25;;;;;;;49.92;21.05;;;;;;;7.82;100.00;100277.47;5117176;28;20328;-67
2021/12/29 02:56:54;;;;;;;54.30;21.40;;;;;;;7.84;100.00;100282.66;5116516;28;20115;-67
2021/12/29 02:59:20;;;;;;;41.25;20.27;;;;;;;7.84;100.00;100285.25;5117456;28;20059;-66
2021/12/29 03:01:46;;;;;;;47.28;21.08;;;;;;;7.83;100.00;100300.03;5117248;28;20384;-67
2021/12/29 03:04:11;;;;;;;44.65;21.27;;;;;;;7.82;100.00;100306.09;5117206;28;20028;-66
2021/12/29 03:06:37;;;;;;;41.85;20.42;;;;;;;7.85;100.00;100306.09;5117047;28;20031;-67
2021/12/29 03:09:05;;;;;;;42.22;20.00;;;;;;;7.84;100.00;100316.50;5117051;28;20031;-66
2021/12/29 03:11:30;;;;;;;46.13;20.13;;;;;;;7.81;100.00;100317.41;5116934;28;20468;-67
2021/12/29 03:13:56;;;;;;;41.78;20.95;;;;;;;7.77;100.00;100315.75;5117243;28;20142;-66
2021/12/29 03:16:21;;;;;;;44.65;21.27;;;;;;;7.78;100.00;100334.84;5116828;28;20043;-66
2021/12/29 03:18:46;;;;;;;45.75;22.13;;;;;;;7.77;100.00;100336.56;5116859;28;20181;-67
2021/12/29 03:21:12;;;;;;;48.67;21.63;;;;;;;7.76;100.00;100340.06;5116872;28;20350;-68
2021/12/29 03:23:39;;;;;;;47.30;21.90;;;;;;;7.81;100.00;100338.25;5116588;28;20434;-67
2021/12/29 03:26:06;;;;;;;42.42;21.85;;;;;;;7.75;100.00;100333.13;5116709;28;20346;-67
2021/12/29 03:28:32;;;;;;;45.05;23.40;;;;;;;7.76;100.00;100344.41;5116817;28;20063;-67
2021/12/29 03:30:57;;;;;;;46.30;22.38;;;;;;;7.79;100.00;100358.25;5116577;28;20191;-66
2021/12/29 03:33:26;;;;;;;50.35;22.38;;;;;;;7.65;100.00;100328.84;5116641;28;20332;-68
2021/12/29 03:35:56;;;;;;;46.50;22.30;;;;;;;7.73;100.00;100347.03;5116042;28;20046;-67
2021/12/29 03:38:25;;;;;;;50.20;22.23;;;;;;;7.78;100.00;100363.47;5116511;28;20039;-67
2021/12/29 03:40:51;;;;;;;46.13;21.73;;;;;;;7.79;100.00;100360.88;5116722;28;20342;-67
2021/12/29 03:43:17;;;;;;;44.40;21.20;;;;;;;7.77;100.00;100369.56;5116451;28;20434;-66
2021/12/29 03:45:45;;;;;;;51.38;22.48;;;;;;;7.65;100.00;100362.72;5116454;28;20050;-66
2021/12/29 03:48:11;;;;;;;43.75;20.40;;;;;;;7.72;100.00;100372.22;5116336;28;20031;-67
2021/12/29 03:50:38;;;;;;;43.67;20.00;;;;;;;7.75;100.00;100373.94;5115969;28;20027;-67
2021/12/29 03:53:05;;;;;;;43.72;20.30;;;;;;;7.76;100.00;100383.47;5116474;28;20027;-67
2021/12/29 03:55:30;;;;;;;43.85;20.25;;;;;;;7.73;100.00;100386.97;5115990;28;20031;-66
2021/12/29 03:57:55;;;;;;;49.30;20.70;;;;;;;7.75;100.00;100395.63;5116329;28;20031;-67
2021/12/29 04:00:21;;;;;;;44.95;20.63;;;;;;;7.71;100.00;100401.72;5116453;28;20070;-66
2021/12/29 04:02:47;;;;;;;44.13;20.52;;;;;;;7.74;100.00;100404.31;5115964;28;20035;-66
2021/12/29 04:05:15;;;;;;;44.42;20.75;;;;;;;7.78;100.00;100403.41;5116217;28;20036;-67
2021/12/29 04:07:41;;;;;;;55.58;21.48;;;;;;;7.77;100.00;100403.44;5115461;28;20032;-67
2021/12/29 04:10:08;;;;;;;46.10;20.90;;;;;;;7.75;100.00;100398.22;5115641;28;20038;-67
2021/12/29 04:12:34;;;;;;;41.08;19.25;;;;;;;7.78;100.00;100394.75;5116144;28;20043;-67
2021/12/29 04:14:59;;;;;;;47.72;21.63;;;;;;;7.76;100.00;100399.97;5115701;28;20039;-66
2021/12/29 04:17:30;;;;;;;42.83;21.02;;;;;;;7.75;100.00;100395.63;5115964;28;20032;-67
2021/12/29 04:22:40;;;;;;;45.13;21.55;;;;;;;7.73;100.00;100409.53;5115906;28;20159;-67
2021/12/29 04:25:05;;;;;;;51.47;21.17;;;;;;;7.74;100.00;100414.72;5115771;28;20464;-67
2021/12/29 04:27:31;;;;;;;43.65;21.50;;;;;;;7.70;100.00;100407.81;5115690;28;20032;-67
2021/12/29 04:29:56;;;;;;;47.72;20.38;;;;;;;7.69;100.00;100409.56;5115562;28;20415;-67
2021/12/29 04:32:21;;;;;;;42.25;20.38;;;;;;;7.67;100.00;100411.31;5115387;28;20024;-66
2021/12/29 04:34:47;;;;;;;46.72;19.15;;;;;;;7.71;100.00;100422.56;5115891;28;20035;-66
2021/12/29 04:37:12;;;;;;;41.17;21.15;;;;;;;7.71;100.00;100434.72;5115564;28;20347;-66
2021/12/29 04:39:37;;;;;;;48.00;20.95;;;;;;;7.66;100.00;100424.34;5115434;28;20035;-67
2021/12/29 04:42:03;;;;;;;46.10;20.90;;;;;;;7.72;100.00;100441.66;5115625;28;20389;-67
2021/12/29 04:44:28;;;;;;;43.13;20.02;;;;;;;7.73;100.00;100448.59;5115434;28;20160;-67
2021/12/29 04:46:55;;;;;;;44.58;20.65;;;;;;;7.70;100.00;100446.88;5115645;28;20077;-67
2021/12/29 04:49:27;;;;;;;46.55;20.45;;;;;;;7.74;100.00;100452.94;5115172;28;20139;-67
2021/12/29 04:52:03;;;;;;;45.22;19.55;;;;;;;7.69;100.00;100455.56;5115274;28;20028;-66
2021/12/29 04:54:30;;;;;;;42.88;19.83;;;;;;;7.74;100.00;100469.44;5115540;28;20024;-67
2021/12/29 04:56:55;;;;;;;44.95;20.92;;;;;;;7.72;100.00;100471.19;5115421;28;20039;-67
2021/12/29 04:59:22;;;;;;;50.08;20.98;;;;;;;7.68;100.00;100470.31;5115166;28;20353;-67
2021/12/29 05:01:48;;;;;;;44.88;20.40;;;;;;;7.73;100.00;100478.13;5115524;28;20123;-67
2021/12/29 05:04:20;;;;;;;44.60;21.10;;;;;;;7.67;100.00;100471.19;5115235;28;20043;-66
2021/12/29 05:09:30;;;;;;;47.53;20.77;;;;;;;7.73;100.00;100478.13;5115478;28;20051;-66
2021/12/29 05:11:55;;;;;;;43.38;20.35;;;;;;;7.67;100.00;100468.59;5115184;28;20032;-67
2021/12/29 05:14:20;;;;;;;40.47;20.40;;;;;;;7.69;100.00;100468.59;5115042;28;20031;-67
2021/12/29 05:16:46;;;;;;;44.50;20.90;;;;;;;7.71;100.00;100459.03;5115180;28;20031;-67
2021/12/29 05:19:11;;;;;;;43.25;20.83;;;;;;;7.68;100.00;100465.13;5115710;28;20053;-67
2021/12/29 05:21:36;;;;;;;42.70;19.60;;;;;;;7.64;100.00;100462.53;5119175;28;20027;-66
2021/12/29 05:24:02;;;;;;;42.15;19.75;;;;;;;7.62;100.00;100462.56;5119213;28;20361;-68
2021/12/29 05:26:27;;;;;;;41.90;20.35;;;;;;;7.67;100.00;100468.59;5118964;28;20042;-67
2021/12/29 05:28:52;;;;;;;43.63;19.80;;;;;;;7.67;100.00;100471.19;5118950;28;20055;-68
2021/12/29 05:31:18;;;;;;;39.65;18.70;;;;;;;7.64;100.00;100472.97;5118956;28;20088;-67
2021/12/29 05:33:43;;;;;;;40.67;20.05;;;;;;;7.63;100.00;100474.69;5119165;28;20032;-67
2021/12/29 05:36:08;;;;;;;41.47;19.50;;;;;;;7.58;100.00;100467.81;5119015;28;20066;-66
2021/12/29 05:38:34;;;;;;;42.47;18.58;;;;;;;7.61;100.00;100466.06;5118367;28;20059;-67
2021/12/29 05:40:59;;;;;;;45.95;19.73;;;;;;;7.58;100.00;100484.31;5118601;28;20130;-66
2021/12/29 05:43:24;;;;;;;42.72;19.08;;;;;;;7.56;100.00;100486.06;5119345;28;20019;-67
2021/12/29 05:45:51;;;;;;;41.67;19.55;;;;;;;7.57;100.00;100489.53;5118393;28;20074;-67
2021/12/29 05:48:17;;;;;;;40.55;18.40;;;;;;;7.59;100.00;100493.84;5118743;28;20028;-67
2021/12/29 05:50:42;;;;;;;38.58;18.98;;;;;;;7.58;100.00;100499.94;5118704;28;20096;-68
2021/12/29 05:53:07;;;;;;;47.60;19.30;;;;;;;7.60;100.00;100494.72;5118453;28;20047;-67
2021/12/29 05:55:33;;;;;;;43.63;19.17;;;;;;;7.57;100.00;100490.38;5118282;28;20028;-68
2021/12/29 05:57:59;;;;;;;41.03;18.40;;;;;;;7.51;100.00;100481.75;5118294;28;20031;-67
2021/12/29 06:00:25;;;;;;;37.45;18.30;;;;;;;7.58;100.00;100499.06;5118523;28;20168;-66
2021/12/29 06:02:53;;;;;;;40.92;18.00;;;;;;;7.53;100.00;100496.47;5118278;28;20059;-67
2021/12/29 06:05:18;;;;;;;40.20;18.40;;;;;;;7.50;100.00;100488.69;5118114;28;20435;-68
2021/12/29 06:07:43;;;;;;;38.70;17.70;;;;;;;7.49;100.00;100480.88;5118315;28;20039;-67
2021/12/29 06:10:09;;;;;;;41.17;17.67;;;;;;;7.50;100.00;100493.03;5118350;28;20057;-68
2021/12/29 06:12:36;;;;;;;36.65;18.50;;;;;;;7.48;100.00;100499.97;5117641;28;20100;-67
2021/12/29 06:15:03;;;;;;;43.17;17.42;;;;;;;7.47;100.00;100509.53;5117873;28;20035;-67
2021/12/29 06:17:28;;;;;;;34.67;17.80;;;;;;;7.45;100.00;100498.25;5118159;28;20027;-66
2021/12/29 06:19:53;;;;;;;36.85;17.48;;;;;;;7.49;100.00;100519.94;5118190;28;20035;-67
2021/12/29 06:22:19;;;;;;;41.15;17.35;;;;;;;7.50;100.00;100529.47;5117999;28;20031;-66
2021/12/29 06:24:44;;;;;;;38.40;17.23;;;;;;;7.46;100.00;100517.34;5118342;28;20114;-67
2021/12/29 06:27:10;;;;;;;39.97;17.63;;;;;;;7.45;100.00;100529.50;5117981;28;20110;-67
2021/12/29 06:29:36;;;;;;;37.72;17.08;;;;;;;7.51;100.00;100529.47;5117711;28;20461;-67
2021/12/29 06:32:01;;;;;;;34.45;16.63;;;;;;;7.43;100.00;100520.00;5116915;28;20031;-66
2021/12/29 06:34:27;;;;;;;34.20;16.98;;;;;;;7.43;100.00;100528.66;5117680;28;20031;-67
2021/12/29 06:36:53;;;;;;;36.55;16.52;;;;;;;7.48;100.00;100541.63;5117714;28;20046;-68
2021/12/29 06:39:18;;;;;;;33.33;16.27;;;;;;;7.48;100.00;100541.63;5117544;28;20430;-67
2021/12/29 06:41:45;;;;;;;32.45;16.58;;;;;;;7.49;100.00;100546.84;5117427;28;20122;-67
2021/12/29 06:44:10;;;;;;;29.17;16.15;;;;;;;7.39;100.00;100524.34;5117232;28;20438;-67
2021/12/29 06:46:36;;;;;;;37.58;15.95;;;;;;;7.46;100.00;100540.78;5117454;28;20024;-69
2021/12/29 06:49:01;;;;;;;33.95;16.02;;;;;;;7.47;100.00;100545.09;5117290;28;20480;-68
2021/12/29 06:51:26;;;;;;;34.53;16.45;;;;;;;7.46;100.00;100551.19;5117557;28;20059;-67
2021/12/29 06:53:51;;;;;;;30.75;16.15;;;;;;;7.46;100.00;100556.41;5116634;28;20035;-66
2021/12/29 06:56:17;;;;;;;35.92;16.88;;;;;;;7.47;100.00;100551.19;5117375;28;20320;-69
2021/12/29 06:58:42;;;;;;;33.45;16.30;;;;;;;7.43;100.00;100549.50;5117419;28;20027;-67
2021/12/29 07:01:08;;;;;;;36.28;16.58;;;;;;;7.31;100.00;100531.31;5117206;28;20047;-68
2021/12/29 07:03:34;;;;;;;34.58;16.95;;;;;;;7.32;100.00;100526.09;5117272;28;20085;-69
2021/12/29 07:06:00;;;;;;;33.35;16.15;;;;;;;7.45;100.00;100539.91;5117120;28;20031;-66
2021/12/29 07:08:25;;;;;;;29.40;15.93;;;;;;;7.40;100.00;100541.69;5117297;28;20028;-68
2021/12/29 07:10:50;;;;;;;35.88;16.67;;;;;;;7.43;100.00;100546.88;5116979;28;20023;-67
2021/12/29 07:13:16;;;;;;;28.67;15.82;;;;;;;7.42;100.00;100552.97;5117170;28;20061;-67
2021/12/29 07:15:41;;;;;;;34.25;16.33;;;;;;;7.41;100.00;100564.25;5117055;28;20070;-67
2021/12/29 07:18:07;;;;;;;32.08;16.02;;;;;;;7.45;100.00;100575.50;5116576;28;20046;-66
2021/12/29 07:20:32;;;;;;;35.42;16.30;;;;;;;7.45;100.00;100581.56;5116810;28;20031;-67
2021/12/29 07:22:58;;;;;;;34.72;16.58;;;;;;;7.41;100.00;100573.81;5116868;28;20088;-67
2021/12/29 07:25:24;;;;;;;35.45;16.38;;;;;;;7.44;100.00;100576.41;5116587;28;20068;-67
2021/12/29 07:27:51;;;;;;;36.92;16.45;;;;;;;7.46;100.00;100585.03;5116708;28;20028;-66
2021/12/29 07:30:16;;;;;;;33.15;16.42;;;;;;;7.43;100.00;100592.88;5116408;28;20031;-68
2021/12/29 07:32:41;;;;;;;31.42;16.05;;;;;;;7.31;100.00;100572.97;5116650;28;20423;-67
2021/12/29 07:35:07;;;;;;;32.67;16.05;;;;;;;7.46;100.00;100601.53;5116445;28;20312;-66
2021/12/29 07:37:32;;;;;;;30.02;15.18;;;;;;;7.46;100.00;100604.13;5116539;28;20049;-66
2021/12/29 07:39:58;;;;;;;34.72;15.90;;;;;;;7.45;100.00;100607.59;5116467;28;20032;-68
2021/12/29 07:42:23;;;;;;;32.00;15.50;;;;;;;7.33;100.00;100589.44;5115826;28;20443;-67
2021/12/29 07:44:50;;;;;;;28.40;14.77;;;;;;;7.46;100.00;100613.66;5116360;28;20032;-68
2021/12/29 07:47:15;;;;;;;30.35;14.13;;;;;;;7.42;100.00;100605.03;5116417;28;20481;-67
2021/12/29 07:49:41;;;;;;;33.47;14.75;;;;;;;7.41;100.00;100600.69;5116269;28;20031;-67
2021/12/29 07:52:06;;;;;;;31.02;14.98;;;;;;;7.45;100.00;100604.13;5116183;28;20421;-68
2021/12/29 07:54:32;;;;;;;28.40;14.80;;;;;;;7.45;100.00;100612.81;5115927;28;20039;-67
2021/12/29 07:56:57;;;;;;;31.95;14.32;;;;;;;7.41;100.00;100594.63;5116388;28;20027;-67
2021/12/29 07:59:22;;;;;;;29.58;13.63;;;;;;;7.32;100.00;100572.09;5115980;28;20027;-67
2021/12/29 08:01:48;;;;;;;28.17;14.63;;;;;;;7.41;100.00;100599.84;5116310;28;20035;-68
2021/12/29 08:04:15;;;;;;;24.95;14.60;;;;;;;7.41;100.00;100611.09;5115945;28;20357;-67
2021/12/29 08:06:42;;;;;;;27.17;14.70;;;;;;;7.40;100.00;100598.09;5116013;28;20035;-67
2021/12/29 08:09:07;;;;;;;28.00;14.65;;;;;;;7.45;100.00;100607.59;5115858;28;20358;-67
2021/12/29 08:11:33;;;;;;;30.35;14.57;;;;;;;7.47;100.00;100610.19;5115657;28;20032;-68
2021/12/29 08:13:58;;;;;;;29.83;15.18;;;;;;;7.34;100.00;100593.78;5116026;28;20336;-67
2021/12/29 08:16:24;;;;;;;27.55;14.35;;;;;;;7.42;100.00;100611.97;5116021;28;20052;-67
2021/12/29 08:18:50;;;;;;;25.73;14.52;;;;;;;7.45;100.00;100611.94;5115733;28;20039;-68
2021/12/29 08:21:15;;;;;;;28.08;14.77;;;;;;;7.42;100.00;100607.63;5116052;28;20047;-67
2021/12/29 08:23:40;;;;;;;31.15;14.55;;;;;;;7.41;100.00;100602.44;5115341;28;20327;-68
2021/12/29 08:26:06;;;;;;;29.50;14.02;;;;;;;7.42;100.00;100597.22;5116281;28;20054;-66
2021/12/29 08:28:31;;;;;;;28.30;14.20;;;;;;;7.42;100.00;100605.03;5115520;28;20020;-68
2021/12/29 08:30:56;;;;;;;29.73;14.60;;;;;;;7.36;100.00;100598.97;5115371;28;20031;-67
2021/12/29 08:33:22;;;;;;;26.95;15.00;;;;;;;7.48;100.00;100614.53;5115674;28;20058;-67
2021/12/29 08:35:47;;;;;;;29.88;15.65;;;;;;;7.44;100.00;100626.72;5115707;28;20036;-68
2021/12/29 08:38:14;;;;;;;25.60;15.77;;;;;;;7.44;100.00;100618.91;5115453;28;20031;-66
2021/12/29 08:40:40;;;;;;;27.42;15.88;;;;;;;7.46;100.00;100617.13;5115513;28;20027;-67
2021/12/29 08:43:05;;;;;;;27.83;15.77;;;;;;;7.42;100.00;100609.38;5115499;28;20110;-68
2021/12/29 08:45:32;;;;;;;33.55;16.50;;;;;;;7.43;100.00;100604.16;5115211;28;20457;-67
2021/12/29 08:47:58;;;;;;;29.13;15.93;;;;;;;7.43;100.00;100609.38;5097914;28;20380;-69
2021/12/29 08:50:29;;;;;;;32.42;16.63;;;;;;;7.32;100.00;100596.38;5115477;28;20027;-67
2021/12/29 08:52:55;;;;;;;30.50;16.00;;;;;;;7.42;100.00;100611.97;5115386;28;20160;-67
2021/12/29 08:55:20;;;;;;;29.20;16.38;;;;;;;7.44;100.00;100615.44;5117937;28;20043;-68
2021/12/29 08:57:45;;;;;;;28.00;16.55;;;;;;;7.45;100.00;100607.59;5119613;28;20119;-68
2021/12/29 09:00:14;;;;;;;28.80;16.50;;;;;;;7.50;100.00;100628.41;5119599;28;20071;-68
2021/12/29 09:02:41;;;;;;;30.65;16.58;;;;;;;7.50;100.00;100625.81;5119520;28;20320;-70
2021/12/29 09:05:08;;;;;;;27.27;16.67;;;;;;;7.49;100.00;100624.94;5119621;28;20084;-68
2021/12/29 09:07:33;;;;;;;30.15;17.20;;;;;;;7.46;100.00;100611.06;5119322;28;20346;-69
2021/12/29 09:10:00;;;;;;;29.38;16.55;;;;;;;7.48;100.00;100614.53;5119437;28;20032;-67
2021/12/29 09:12:26;;;;;;;27.27;16.42;;;;;;;7.48;100.00;100604.97;5119556;28;20047;-69
2021/12/29 09:14:51;;;;;;;26.73;16.10;;;;;;;7.57;100.00;100620.56;5119661;28;20034;-67
2021/12/29 09:17:16;;;;;;;24.25;15.00;;;;;;;7.63;100.00;100612.72;5119676;28;20059;-69
2021/12/29 09:19:44;;;;;;;25.20;14.57;;;;;;;7.56;100.00;100623.19;5119380;28;20122;-69
2021/12/29 09:22:10;;;;;;;23.13;14.63;;;;;;;7.56;100.00;100617.97;5119083;28;20032;-67
2021/12/29 09:24:35;;;;;;;25.08;15.00;;;;;;;7.52;100.00;100606.72;5118929;28;20040;-68
2021/12/29 09:27:01;;;;;;;23.80;14.60;;;;;;;7.58;100.00;100616.25;5119103;28;20433;-68
2021/12/29 09:29:26;;;;;;;29.45;15.90;;;;;;;7.63;100.00;100609.25;5101040;28;20024;-68
2021/12/29 09:31:51;;;;;;;25.23;15.70;;;;;;;7.62;100.00;100587.53;5118923;28;20100;-68
2021/12/29 09:34:17;;;;;;;22.50;14.80;;;;;;;7.71;100.00;100594.47;5119206;28;20081;-67
2021/12/29 09:36:42;;;;;;;26.25;15.00;;;;;;;7.71;100.00;100591.00;5118714;28;20038;-66
2021/12/29 09:39:08;;;;;;;23.77;14.65;;;;;;;7.76;100.00;100603.13;5118685;28;20024;-70
2021/12/29 09:41:33;;;;;;;21.33;13.98;;;;;;;7.63;100.00;100578.00;5119290;28;20066;-68
2021/12/29 09:43:59;;;;;;;18.70;12.35;;;;;;;7.88;100.00;100607.38;5118896;28;20100;-66
2021/12/29 09:46:25;;;;;;;20.33;13.30;;;;;;;7.87;100.00;100609.13;5118861;28;20119;-67
2021/12/29 09:48:51;;;;;;;20.52;12.90;;;;;;;7.94;100.00;100610.81;5118877;28;20038;-66
2021/12/29 09:51:18;;;;;;;24.38;12.10;;;;;;;7.95;100.00;100604.75;5118491;28;20106;-68
2021/12/29 09:53:44;;;;;;;19.05;11.70;;;;;;;7.97;100.00;100594.28;5118211;28;20112;-69
2021/12/29 09:56:10;;;;;;;22.02;12.02;;;;;;;7.91;100.00;100586.53;5117947;28;20043;-68
2021/12/29 09:58:36;;;;;;;18.55;11.43;;;;;;;7.95;100.00;100588.25;5118585;28;20027;-68
2021/12/29 10:01:04;;;;;;;20.17;11.65;;;;;;;7.93;100.00;100596.06;5118457;28;20032;-66
2021/12/29 10:03:31;;;;;;;20.40;11.30;;;;;;;7.88;100.00;100596.97;5118428;28;20115;-69
2021/12/29 10:06:00;;;;;;;21.85;10.75;;;;;;;7.86;100.00;100585.69;5118135;28;20111;-68
2021/12/29 10:08:29;;;;;;;20.52;11.13;;;;;;;7.86;100.00;100602.19;5117888;28;20338;-69
2021/12/29 10:11:01;;;;;;;18.92;12.00;;;;;;;7.89;100.00;100607.38;5118630;28;20028;-67
2021/12/29 10:13:32;;;;;;;17.90;10.85;;;;;;;7.90;100.00;100601.28;5118275;28;20043;-66
2021/12/29 10:16:05;;;;;;;19.15;10.75;;;;;;;7.99;100.00;100601.22;5118439;28;20104;-67
2021/12/29 10:18:32;;;;;;;17.63;10.35;;;;;;;8.08;100.00;100597.69;5117966;28;20379;-69
2021/12/29 10:21:05;;;;;;;15.23;9.38;;;;;;;8.11;100.00;100594.19;5117787;28;20035;-67
2021/12/29 10:23:33;;;;;;;15.50;8.90;;;;;;;8.19;100.00;100592.38;5117838;28;20027;-68
2021/12/29 10:26:22;;;;;;;18.83;9.20;;;;;;;8.15;100.00;100585.47;5117909;28;20065;-67
2021/12/29 10:28:51;;;;;;;13.48;8.73;;;;;;;8.19;100.00;100587.19;5117323;28;20031;-69
2021/12/29 10:31:24;;;;;;;15.35;7.68;;;;;;;8.23;100.00;100573.25;5118214;28;20028;-69
2021/12/29 10:33:52;;;;;;;16.85;8.15;;;;;;;8.18;100.00;100575.88;5117645;28;20089;-70
2021/12/29 10:36:22;;;;;;;17.65;8.90;;;;;;;8.15;100.00;100565.47;5117628;28;20526;-69
2021/12/29 10:39:15;;;;;;;15.73;8.32;;;;;;;8.20;100.00;100565.44;5117639;28;20088;-68
2021/12/29 10:41:48;;;;;;;18.25;8.07;;;;;;;8.08;100.00;100553.41;5117400;28;20232;-68
2021/12/29 10:44:15;;;;;;;15.80;7.03;;;;;;;8.19;100.00;100566.31;5117658;28;20046;-67
2021/12/29 10:46:40;;;;;;;16.00;8.00;;;;;;;8.23;100.00;100568.03;5117499;28;20032;-69
2021/12/29 10:49:08;;;;;;;13.38;7.15;;;;;;;8.28;100.00;100559.31;5117581;28;20031;-70
2021/12/29 10:51:36;;;;;;;16.95;7.38;;;;;;;8.29;100.00;100568.88;5117517;28;20046;-66
2021/12/29 10:54:17;;;;;;;15.70;7.20;;;;;;;8.30;100.00;100564.50;5117046;28;20130;-69
2021/12/29 10:56:45;;;;;;;11.52;6.35;;;;;;;8.30;100.00;100564.50;5117485;28;20405;-67
2021/12/29 10:59:23;;;;;;;17.92;6.97;;;;;;;8.31;100.00;100568.84;5117333;28;20028;-67
2021/12/29 11:01:50;;;;;;;15.45;6.28;;;;;;;8.27;100.00;100564.53;5117342;28;20055;-67
2021/12/29 11:04:16;;;;;;;17.30;6.78;;;;;;;8.24;100.00;100575.84;5117117;28;20028;-69
2021/12/29 11:06:46;;;;;;;16.52;6.93;;;;;;;8.29;100.00;100599.28;5117303;28;20031;-69
2021/12/29 11:09:13;;;;;;;15.63;6.18;;;;;;;8.29;100.00;100584.50;5116976;28;20110;-68
2021/12/29 11:11:41;;;;;;;13.05;6.10;;;;;;;8.31;100.00;100582.72;5117057;28;20423;-67
2021/12/29 11:14:21;;;;;;;13.23;5.60;;;;;;;8.31;100.00;100576.66;5117190;28;20055;-69
2021/12/29 11:17:03;;;;;;;17.42;6.60;;;;;;;8.31;100.00;100581.88;5116594;28;20092;-70